Terminal Aerodrome Forecast
Issued by NWS

Home | Current Version | Previous Version | Text Only | Print | Product List | Glossary On
Versions: 1 2 3 4 5 6 7 8 9 10 11 12 13
000
FTUS44 KEPZ 251700 RRA
TAFDMN
TAF
KDMN 251742Z 2518/2618 22012KT P6SM FEW150 FEW250
     FM252000 24020G31KT P6SM SCT150 SCT250
      TEMPO 2520/2524 24023G35KT
     FM260000 25012KT P6SM SCT080 BKN180
     FM260800 25010KT P6SM VCSH SCT015 BKN025 OVC060
      TEMPO 2609/2612 -SHRA BKN015 OVC020
     FM261500 29007KT P6SM VCSH SCT025 BKN060=

USA.gov is the U.S. government's official web portal to all federal, state and local government web resources and services.